Time;durP1;ratioP1;P1;durP2;ratioP2;P2;SDS_P1;SDS_P2;PMS_P1;PMS_P2;Temp;Humidity;BMP_temperature;BMP_pressure;BME280_temperature;BME280_humidity;BME280_pressure;Samples;Min_cycle;Max_cycle;Signal;HPM_P1;HPM_P2
2021/06/01 01:04:57;;;;;;;18.10;8.43;;;6.40;99.90;;;;;;4750453;29;20051;-71
2021/06/01 01:07:45;;;;;;;10.23;7.18;;;6.30;99.90;;;;;;4763020;29;20114;-71
2021/06/01 01:10:14;;;;;;;8.20;6.70;;;6.30;99.90;;;;;;4765704;29;20046;-71
2021/06/01 01:13:01;;;;;;;9.45;6.43;;;6.20;99.90;;;;;;4780164;29;20043;-71
2021/06/01 01:15:29;;;;;;;19.95;8.55;;;6.10;99.90;;;;;;4780785;29;20141;-71
2021/06/01 01:17:57;;;;;;;13.52;7.47;;;6.10;99.90;;;;;;4780990;29;20054;-71
2021/06/01 01:20:29;;;;;;;16.35;7.22;;;6.00;99.90;;;;;;4780926;29;20043;-71
2021/06/01 01:22:58;;;;;;;13.07;7.15;;;6.10;99.90;;;;;;4780741;29;20602;-71
2021/06/01 01:25:29;;;;;;;16.88;8.07;;;6.10;99.90;;;;;;4765785;29;20050;-71
2021/06/01 01:28:25;;;;;;;15.23;8.00;;;6.10;99.90;;;;;;4780860;29;20078;-71
2021/06/01 01:30:53;;;;;;;22.70;9.18;;;6.10;99.90;;;;;;4765870;29;20054;-71
2021/06/01 01:33:25;;;;;;;12.00;7.68;;;6.10;99.90;;;;;;4780870;29;20051;-71
2021/06/01 01:35:55;;;;;;;14.82;7.45;;;6.00;99.90;;;;;;4765856;29;20063;-71
2021/06/01 01:38:23;;;;;;;20.25;8.32;;;6.10;99.90;;;;;;4889711;28;20046;-71
2021/06/01 01:40:50;;;;;;;13.20;7.82;;;6.20;99.90;;;;;;4956093;28;20140;-71
2021/06/01 01:43:21;;;;;;;14.95;7.88;;;6.10;99.90;;;;;;5127482;27;20146;-70
2021/06/01 01:45:52;;;;;;;12.45;7.32;;;6.10;99.90;;;;;;5146227;27;20047;-71
2021/06/01 01:51:15;;;;;;;13.48;7.93;;;6.00;99.90;;;;;;5114850;27;20046;-71
2021/06/01 01:53:47;;;;;;;10.05;7.03;;;5.90;99.90;;;;;;5137389;27;20094;-71
2021/06/01 01:56:16;;;;;;;12.32;7.10;;;5.90;99.90;;;;;;5127704;27;20425;-71
2021/06/01 01:58:43;;;;;;;13.25;8.18;;;5.80;99.90;;;;;;5145886;27;20126;-71
2021/06/01 02:01:10;;;;;;;19.33;9.00;;;5.90;99.90;;;;;;5145930;27;20057;-71
2021/06/01 02:03:38;;;;;;;18.08;7.07;;;5.80;99.90;;;;;;5142587;27;20055;-71
2021/06/01 02:06:05;;;;;;;17.27;7.80;;;5.80;99.90;;;;;;5127621;27;20134;-71
2021/06/01 02:08:30;;;;;;;9.85;6.97;;;5.60;99.90;;;;;;5115120;27;20129;-71
2021/06/01 02:10:58;;;;;;;14.38;8.40;;;5.60;99.90;;;;;;5131877;27;20047;-70
2021/06/01 02:13:28;;;;;;;15.43;7.80;;;5.60;99.90;;;;;;5131953;27;20047;-71
2021/06/01 02:15:56;;;;;;;17.02;8.90;;;5.70;99.90;;;;;;5131921;27;20047;-71
2021/06/01 02:18:22;;;;;;;19.25;8.18;;;5.70;99.90;;;;;;5131616;27;20426;-71
2021/06/01 02:20:52;;;;;;;13.60;8.15;;;5.70;99.90;;;;;;5113272;27;20075;-71
2021/06/01 02:23:48;;;;;;;14.13;7.93;;;5.60;99.90;;;;;;5131905;27;20470;-71
2021/06/01 02:26:30;;;;;;;14.60;7.45;;;5.60;99.90;;;;;;5131781;27;20512;-71
2021/06/01 02:29:06;;;;;;;10.57;7.38;;;5.60;99.90;;;;;;5131383;27;20043;-71
2021/06/01 02:31:40;;;;;;;14.30;7.55;;;5.50;99.90;;;;;;5113622;27;20050;-71
2021/06/01 02:34:07;;;;;;;12.77;7.90;;;5.50;99.90;;;;;;5113276;27;20418;-71
2021/06/01 02:36:37;;;;;;;14.05;7.68;;;5.50;99.90;;;;;;5117886;27;20138;-71
2021/06/01 02:39:04;;;;;;;13.70;7.07;;;5.40;99.90;;;;;;5113090;27;20043;-71
2021/06/01 02:41:31;;;;;;;15.68;8.38;;;5.50;99.90;;;;;;5131419;27;20054;-71
2021/06/01 02:43:59;;;;;;;13.50;6.95;;;5.50;99.90;;;;;;5131050;27;20130;-71
2021/06/01 02:46:25;;;;;;;12.50;8.15;;;5.50;99.90;;;;;;5131349;27;20051;-71
2021/06/01 02:48:53;;;;;;;14.50;8.32;;;5.50;99.90;;;;;;5131069;27;20051;-71
2021/06/01 02:51:20;;;;;;;13.52;8.18;;;5.50;99.90;;;;;;5130952;27;20189;-71
2021/06/01 02:53:54;;;;;;;19.70;9.25;;;5.50;99.90;;;;;;5130874;27;20103;-71
2021/06/01 02:56:22;;;;;;;11.88;7.15;;;5.60;99.90;;;;;;5131068;27;20477;-71
2021/06/01 02:58:49;;;;;;;14.48;7.57;;;5.50;99.90;;;;;;5118935;27;20070;-71
2021/06/01 03:01:17;;;;;;;12.65;8.50;;;5.50;99.90;;;;;;5095477;27;20047;-71
2021/06/01 03:03:53;;;;;;;16.50;9.02;;;5.50;99.90;;;;;;5130804;27;20565;-71
2021/06/01 03:06:28;;;;;;;15.00;8.82;;;5.60;99.90;;;;;;5112393;27;20460;-71
2021/06/01 03:08:55;;;;;;;16.50;8.43;;;5.60;99.90;;;;;;5099840;27;20125;-71
2021/06/01 03:11:22;;;;;;;21.63;9.82;;;5.60;99.90;;;;;;5130736;27;20054;-71
2021/06/01 03:13:50;;;;;;;17.33;9.25;;;5.70;99.90;;;;;;5130437;27;20077;-71
2021/06/01 03:16:18;;;;;;;18.77;10.68;;;5.70;99.90;;;;;;5132004;27;20090;-71
2021/06/01 03:18:45;;;;;;;12.98;9.75;;;5.70;99.90;;;;;;5101802;28;20071;-71
2021/06/01 03:21:12;;;;;;;14.55;9.30;;;5.80;99.90;;;;;;5120926;27;20075;-71
2021/06/01 03:23:40;;;;;;;15.35;9.10;;;5.90;99.90;;;;;;5124869;27;20146;-71
2021/06/01 03:26:05;;;;;;;15.25;9.52;;;5.90;99.90;;;;;;5112101;27;20050;-71
2021/06/01 03:28:32;;;;;;;15.68;10.40;;;6.00;99.90;;;;;;5091764;28;20047;-71
2021/06/01 03:30:59;;;;;;;13.48;8.95;;;6.00;99.90;;;;;;5130338;27;20055;-71
2021/06/01 03:33:28;;;;;;;18.45;9.90;;;6.00;99.90;;;;;;5130330;27;20078;-71
2021/06/01 03:35:53;;;;;;;13.65;9.65;;;6.10;99.90;;;;;;5130469;27;20130;-71
2021/06/01 03:38:20;;;;;;;14.80;10.02;;;6.10;99.90;;;;;;5129992;27;20133;-71
2021/06/01 03:40:46;;;;;;;14.82;9.48;;;6.20;99.90;;;;;;5130136;27;20043;-71
2021/06/01 03:43:12;;;;;;;15.27;9.45;;;6.30;99.90;;;;;;5111914;27;20047;-71
2021/06/01 03:45:39;;;;;;;21.83;8.55;;;6.30;99.90;;;;;;5130435;27;20058;-71
2021/06/01 03:48:05;;;;;;;20.88;10.13;;;6.40;99.90;;;;;;5130129;27;20095;-71
2021/06/01 03:50:31;;;;;;;23.45;9.65;;;6.50;99.90;;;;;;5111604;27;20043;-71
2021/06/01 03:52:57;;;;;;;14.35;9.40;;;6.50;99.90;;;;;;5129715;27;20170;-71
2021/06/01 03:55:23;;;;;;;17.17;9.68;;;6.60;99.90;;;;;;5111655;27;20487;-71
2021/06/01 03:57:50;;;;;;;16.33;9.63;;;6.70;99.90;;;;;;5129689;27;20051;-71
2021/06/01 04:00:20;;;;;;;13.10;9.73;;;6.80;99.90;;;;;;5129561;27;20082;-71
2021/06/01 04:02:46;;;;;;;11.88;8.95;;;7.00;99.90;;;;;;5129703;27;20042;-71
2021/06/01 04:05:12;;;;;;;16.38;8.57;;;7.20;99.90;;;;;;5129620;27;20043;-71
2021/06/01 04:07:39;;;;;;;13.63;8.55;;;7.30;99.90;;;;;;5111250;27;20134;-71
2021/06/01 04:10:06;;;;;;;17.58;8.93;;;7.40;99.90;;;;;;5129714;27;20134;-72
2021/06/01 04:12:34;;;;;;;13.80;9.25;;;7.50;99.90;;;;;;5129860;27;20538;-71
2021/06/01 04:15:00;;;;;;;14.88;8.60;;;7.50;99.90;;;;;;5129397;27;20126;-71
2021/06/01 04:17:26;;;;;;;19.02;8.63;;;7.70;99.90;;;;;;5110956;27;20166;-71
2021/06/01 04:19:52;;;;;;;18.73;10.18;;;7.80;99.90;;;;;;5128135;27;20545;-71
2021/06/01 04:22:18;;;;;;;18.85;9.15;;;7.80;99.90;;;;;;5129598;27;20043;-71
2021/06/01 04:24:44;;;;;;;12.55;9.70;;;7.90;99.90;;;;;;5129258;27;20043;-71
2021/06/01 04:27:10;;;;;;;14.35;8.85;;;8.10;99.90;;;;;;5128952;27;20434;-72
2021/06/01 04:29:36;;;;;;;20.55;9.07;;;8.20;99.90;;;;;;5128890;27;20172;-72
2021/06/01 04:32:03;;;;;;;11.60;8.15;;;8.30;99.90;;;;;;5129168;27;20084;-72
2021/06/01 04:34:29;;;;;;;19.95;9.93;;;8.40;99.90;;;;;;5111470;27;20043;-69
2021/06/01 04:36:55;;;;;;;23.58;8.95;;;8.50;99.90;;;;;;5120493;27;20133;-71
2021/06/01 04:39:21;;;;;;;19.60;8.88;;;8.60;99.90;;;;;;5118698;27;20126;-71
2021/06/01 04:41:47;;;;;;;19.40;9.15;;;8.70;99.90;;;;;;5129127;27;20047;-71
2021/06/01 04:44:13;;;;;;;27.77;9.10;;;8.80;99.90;;;;;;5128296;27;20088;-71
2021/06/01 04:46:39;;;;;;;33.55;10.13;;;8.90;99.90;;;;;;5128423;27;20127;-71
2021/06/01 04:49:05;;;;;;;21.55;9.60;;;9.00;99.90;;;;;;5109300;28;20482;-70
2021/06/01 04:51:31;;;;;;;25.05;9.10;;;9.10;99.90;;;;;;5119760;27;20055;-70
2021/06/01 04:53:59;;;;;;;17.55;8.68;;;9.20;99.90;;;;;;5125144;28;20043;-67
2021/06/01 04:56:27;;;;;;;12.85;7.93;;;9.30;99.90;;;;;;5128961;28;20131;-68
2021/06/01 04:58:55;;;;;;;12.48;8.80;;;9.40;99.90;;;;;;5128388;28;20490;-69
2021/06/01 05:01:22;;;;;;;15.02;8.32;;;9.60;99.90;;;;;;5129074;28;20077;-70
2021/06/01 05:03:48;;;;;;;26.30;8.45;;;9.60;99.90;;;;;;5128505;28;20062;-70
2021/06/01 05:06:14;;;;;;;18.80;8.68;;;9.80;99.90;;;;;;5108490;28;20126;-63
2021/06/01 05:08:40;;;;;;;19.38;9.45;;;9.90;99.90;;;;;;5109800;28;20121;-65
2021/06/01 05:11:06;;;;;;;16.40;8.32;;;10.00;99.90;;;;;;5128795;28;20047;-70
2021/06/01 05:13:32;;;;;;;21.70;8.85;;;10.10;99.90;;;;;;5118273;28;20126;-65
2021/06/01 05:15:58;;;;;;;18.52;8.00;;;10.20;99.90;;;;;;5128120;28;20077;-64
2021/06/01 05:18:24;;;;;;;17.08;8.57;;;10.40;99.90;;;;;;5128264;28;20047;-66
2021/06/01 05:20:50;;;;;;;14.85;9.30;;;10.70;99.90;;;;;;5128458;28;20126;-66
2021/06/01 05:23:16;;;;;;;14.38;9.18;;;10.90;99.90;;;;;;5128485;28;20134;-66
2021/06/01 05:25:44;;;;;;;21.90;10.45;;;11.10;99.90;;;;;;5110116;28;20103;-68
2021/06/01 05:28:11;;;;;;;14.98;9.45;;;11.30;99.90;;;;;;5110355;28;20097;-69
2021/06/01 05:33:14;;;;;;;14.40;10.05;;;11.70;99.90;;;;;;5128645;28;20058;-68
2021/06/01 05:36:03;;;;;;;24.20;10.00;;;11.80;99.10;;;;;;5114528;28;20797;-69
2021/06/01 05:38:30;;;;;;;16.80;7.75;;;11.90;97.10;;;;;;5127366;28;20066;-69
2021/06/01 05:40:58;;;;;;;22.40;8.38;;;12.20;95.60;;;;;;5110071;28;20083;-68
2021/06/01 05:43:24;;;;;;;11.65;7.80;;;12.30;94.90;;;;;;5128154;27;20051;-69
2021/06/01 05:45:50;;;;;;;12.45;8.10;;;12.50;94.90;;;;;;5122249;27;20047;-62
2021/06/01 05:48:17;;;;;;;22.58;8.32;;;12.80;93.40;;;;;;5132093;27;20126;-62
2021/06/01 05:50:44;;;;;;;17.98;8.15;;;12.90;93.60;;;;;;5131712;27;20043;-64
2021/06/01 05:53:10;;;;;;;12.23;7.25;;;13.20;92.80;;;;;;5131869;27;20498;-63
2021/06/01 05:55:38;;;;;;;14.05;7.55;;;13.40;92.70;;;;;;5131847;27;20157;-74
2021/06/01 05:58:05;;;;;;;19.60;7.65;;;13.60;90.90;;;;;;5096906;27;20078;-64
2021/06/01 06:00:31;;;;;;;13.68;7.65;;;13.80;89.30;;;;;;5131374;27;20458;-64
2021/06/01 06:02:59;;;;;;;17.55;8.05;;;14.20;89.50;;;;;;5131653;27;20504;-65
2021/06/01 06:05:25;;;;;;;14.13;7.40;;;14.30;87.20;;;;;;5131354;27;20047;-64
2021/06/01 06:07:51;;;;;;;37.10;9.38;;;14.80;84.60;;;;;;5131450;27;20494;-64
2021/06/01 06:10:18;;;;;;;18.85;6.97;;;15.50;81.50;;;;;;5131875;27;20061;-63
2021/06/01 06:12:44;;;;;;;13.07;7.50;;;16.50;77.30;;;;;;5131692;27;20039;-65
2021/06/01 06:15:15;;;;;;;18.27;6.65;;;17.20;73.90;;;;;;5131768;27;20047;-64
2021/06/01 06:17:56;;;;;;;13.02;6.05;;;17.50;70.70;;;;;;5131612;27;20085;-64
2021/06/01 06:20:22;;;;;;;15.48;6.55;;;17.60;69.00;;;;;;5131476;27;20076;-64
2021/06/01 06:22:48;;;;;;;9.25;5.93;;;17.60;68.80;;;;;;5131567;27;20043;-64
2021/06/01 06:25:14;;;;;;;12.52;5.85;;;17.80;68.40;;;;;;5131388;27;20046;-64
2021/06/01 06:27:40;;;;;;;8.52;6.20;;;18.30;65.90;;;;;;5131465;27;20043;-63
2021/06/01 06:30:09;;;;;;;8.45;5.60;;;18.40;64.80;;;;;;5131294;27;20227;-64
2021/06/01 06:32:35;;;;;;;7.18;5.05;;;18.90;63.90;;;;;;5131117;27;20062;-61
2021/06/01 06:35:02;;;;;;;8.45;5.35;;;20.00;64.50;;;;;;5131284;27;20051;-62
2021/06/01 06:37:28;;;;;;;12.13;4.88;;;21.80;61.40;;;;;;5130806;27;20184;-62
2021/06/01 06:39:54;;;;;;;9.10;4.82;;;23.20;56.10;;;;;;5124508;27;20142;-62
2021/06/01 06:42:20;;;;;;;5.68;5.05;;;23.50;55.70;;;;;;5131179;27;20443;-62
2021/06/01 06:44:50;;;;;;;9.05;4.78;;;23.80;53.30;;;;;;5130991;27;20058;-62
2021/06/01 06:49:46;;;;;;;11.32;4.28;;;26.10;48.40;;;;;;5130344;27;20047;-62
2021/06/01 06:52:13;;;;;;;9.80;3.67;;;27.00;48.60;;;;;;5129340;27;20521;-62
2021/06/01 06:54:40;;;;;;;11.18;3.40;;;28.90;45.20;;;;;;5130260;27;20059;-63
2021/06/01 06:57:06;;;;;;;8.52;2.15;;;30.50;42.10;;;;;;5131061;27;20044;-62
2021/06/01 06:59:32;;;;;;;6.05;2.85;;;31.20;40.40;;;;;;5130743;27;20122;-62
2021/06/01 07:01:58;;;;;;;6.68;2.33;;;31.90;39.60;;;;;;5130837;27;20070;-61
2021/06/01 07:04:25;;;;;;;11.80;2.50;;;32.30;38.50;;;;;;5130427;27;20218;-62
2021/06/01 07:06:53;;;;;;;5.80;1.83;;;32.30;39.60;;;;;;5112146;27;20414;-62
2021/06/01 07:09:19;;;;;;;6.35;1.58;;;32.50;36.40;;;;;;5130114;27;20047;-62
2021/06/01 07:11:45;;;;;;;3.00;1.45;;;32.40;37.20;;;;;;5130300;27;20055;-62
2021/06/01 07:14:26;;;;;;;9.30;1.52;;;33.50;35.90;;;;;;5130326;27;20112;-62
2021/06/01 07:16:52;;;;;;;5.05;1.10;;;34.20;35.00;;;;;;5129896;27;20406;-61
2021/06/01 07:19:19;;;;;;;2.47;0.75;;;34.70;34.70;;;;;;5130087;27;20536;-62
2021/06/01 07:21:45;;;;;;;10.07;1.35;;;35.70;34.50;;;;;;5130327;27;20118;-61
2021/06/01 07:24:11;;;;;;;3.22;1.05;;;36.00;34.30;;;;;;5130547;27;20114;-64
2021/06/01 07:26:37;;;;;;;6.65;1.13;;;36.20;33.80;;;;;;5124996;27;20243;-65
2021/06/01 07:29:03;;;;;;;1.15;1.05;;;35.40;33.90;;;;;;5119672;27;20135;-65
2021/06/01 07:31:30;;;;;;;3.33;1.10;;;35.50;34.60;;;;;;5129081;27;20092;-65
2021/06/01 07:33:56;;;;;;;3.55;0.82;;;36.90;33.50;;;;;;5125053;27;20131;-65
2021/06/01 07:36:22;;;;;;;6.28;1.02;;;38.10;32.30;;;;;;5122998;27;20121;-66
2021/06/01 07:38:48;;;;;;;9.40;0.75;;;38.70;32.10;;;;;;5129471;27;20067;-66
2021/06/01 07:41:14;;;;;;;3.75;0.50;;;38.20;30.30;;;;;;5129559;27;20172;-66
2021/06/01 07:43:40;;;;;;;5.10;0.60;;;35.80;32.80;;;;;;5122345;27;20526;-66
2021/06/01 07:46:06;;;;;;;4.85;0.73;;;34.90;33.50;;;;;;5129689;27;20643;-66
2021/06/01 07:48:37;;;;;;;13.18;1.27;;;33.60;34.10;;;;;;5115769;27;20510;-65
2021/06/01 07:51:10;;;;;;;4.35;1.42;;;33.10;34.20;;;;;;5129648;27;20051;-68
2021/06/01 07:53:40;;;;;;;5.45;0.95;;;33.20;34.50;;;;;;5129643;27;20154;-64
2021/06/01 07:56:10;;;;;;;9.13;1.23;;;33.90;33.90;;;;;;5129289;27;20162;-65
2021/06/01 07:58:36;;;;;;;11.88;0.90;;;36.20;32.70;;;;;;5129248;27;20046;-66
2021/06/01 08:01:03;;;;;;;7.22;0.40;;;37.90;31.70;;;;;;5128675;27;20131;-66
2021/06/01 08:03:29;;;;;;;71.93;5.70;;;38.40;31.00;;;;;;5129426;27;20153;-65
2021/06/01 08:05:54;;;;;;;20.95;2.08;;;37.90;31.10;;;;;;5128892;27;20503;-66
2021/06/01 08:08:21;;;;;;;13.60;1.70;;;37.60;30.60;;;;;;5129479;27;20507;-67
2021/06/01 08:10:49;;;;;;;12.20;1.20;;;38.70;30.00;;;;;;5128793;27;20075;-65
2021/06/01 08:13:16;;;;;;;19.70;2.17;;;40.00;30.40;;;;;;5129293;27;20051;-65
2021/06/01 08:15:47;;;;;;;7.88;0.85;;;40.10;29.80;;;;;;5118004;27;20165;-66
2021/06/01 08:18:13;;;;;;;23.55;2.05;;;38.80;30.00;;;;;;5125425;27;20051;-71
2021/06/01 08:20:45;;;;;;;12.88;1.08;;;37.60;30.40;;;;;;5128352;27;20082;-73
2021/06/01 08:23:11;;;;;;;;;;;36.60;30.60;;;;;;5129655;27;20126;-74
2021/06/01 08:25:37;;;;;;;1.63;0.60;;;35.60;32.00;;;;;;5110534;27;20399;-76
2021/06/01 08:28:03;;;;;;;3.25;0.40;;;34.60;31.80;;;;;;5129224;27;20460;-67
2021/06/01 08:30:31;;;;;;;6.20;0.45;;;33.30;32.60;;;;;;5119315;27;20129;-66
2021/06/01 08:32:57;;;;;;;4.78;0.50;;;32.90;32.00;;;;;;5128893;27;20049;-68
2021/06/01 08:35:23;;;;;;;3.83;0.30;;;32.60;32.70;;;;;;5128905;27;20053;-67
2021/06/01 08:37:49;;;;;;;3.10;0.30;;;32.70;33.60;;;;;;5129096;27;20207;-68
2021/06/01 08:40:16;;;;;;;6.15;0.65;;;34.70;33.20;;;;;;5093422;27;20542;-64
2021/06/01 08:42:43;;;;;;;6.15;0.47;;;36.90;30.70;;;;;;5128213;27;20074;-69
2021/06/01 08:45:10;;;;;;;2.17;0.50;;;36.90;30.50;;;;;;5128746;27;20089;-70
2021/06/01 08:47:39;;;;;;;3.90;0.60;;;35.60;30.60;;;;;;5128720;27;20112;-66
2021/06/01 08:50:11;;;;;;;9.52;1.38;;;34.10;32.10;;;;;;5110280;27;20047;-67
2021/06/01 08:52:38;;;;;;;1.77;0.40;;;33.10;32.60;;;;;;5128290;27;20564;-67
2021/06/01 08:55:06;;;;;;;5.20;0.85;;;31.00;33.80;;;;;;5129166;27;20051;-66
2021/06/01 08:57:37;;;;;;;6.22;1.05;;;30.30;33.80;;;;;;5128629;28;20039;-66
2021/06/01 09:00:06;;;;;;;6.03;0.35;;;29.90;34.10;;;;;;5128585;28;20055;-67
2021/06/01 09:02:32;;;;;;;8.02;0.50;;;29.70;34.10;;;;;;5128216;28;20563;-69
2021/06/01 09:05:06;;;;;;;14.02;0.93;;;29.80;33.50;;;;;;5093567;28;20046;-65
2021/06/01 09:07:41;;;;;;;15.23;0.95;;;29.20;34.70;;;;;;5128321;28;20573;-67
2021/06/01 09:11:02;;;;;;;12.88;0.65;;;28.40;36.10;;;;;;5128670;28;20078;-71
2021/06/01 09:21:38;;;;;;;6.78;0.77;;;27.30;37.30;;;;;;5132678;27;20292;-70
2021/06/01 09:24:05;;;;;;;4.82;0.52;;;27.30;37.50;;;;;;5132548;27;20063;-70
2021/06/01 09:29:25;;;;;;;7.40;1.40;;;26.60;37.20;;;;;;5132281;27;20085;-68
2021/06/01 09:32:24;;;;;;;5.13;0.95;;;26.30;38.60;;;;;;5132246;27;20051;-65
2021/06/01 09:34:54;;;;;;;2.90;0.47;;;26.40;38.40;;;;;;5091684;27;20118;-68
2021/06/01 09:37:21;;;;;;;2.20;0.50;;;26.20;37.60;;;;;;5132466;27;20406;-68
2021/06/01 09:40:09;;;;;;;2.47;0.60;;;27.90;36.20;;;;;;5132110;27;20122;-65
2021/06/01 09:42:39;;;;;;;3.35;0.50;;;28.70;35.70;;;;;;5132182;27;20142;-65
2021/06/01 09:45:10;;;;;;;3.47;0.50;;;29.80;34.70;;;;;;5132534;27;20510;-67
2021/06/01 09:47:55;;;;;;;12.07;0.63;;;31.10;32.80;;;;;;5132259;27;20122;-64
2021/06/01 09:51:00;;;;;;;2.63;0.40;;;33.20;32.00;;;;;;5132120;27;20150;-64
2021/06/01 09:53:35;;;;;;;0.88;0.30;;;35.00;31.50;;;;;;5131834;27;20047;-67
2021/06/01 09:56:01;;;;;;;3.15;0.13;;;38.20;29.50;;;;;;5132119;27;20468;-65
2021/06/01 09:58:32;;;;;;;4.88;0.40;;;40.40;30.00;;;;;;5131594;27;20460;-68
2021/06/01 10:01:00;;;;;;;9.93;0.30;;;42.10;28.70;;;;;;5131472;27;20108;-66
2021/06/01 10:03:36;;;;;;;0.73;0.20;;;43.20;28.30;;;;;;5129243;27;20094;-69
2021/06/01 10:06:03;;;;;;;3.10;0.63;;;43.00;28.40;;;;;;5132226;27;20077;-67
2021/06/01 10:08:31;;;;;;;0.10;0.10;;;46.00;28.40;;;;;;5131883;27;20122;-70
2021/06/01 10:11:01;;;;;;;0.47;0.10;;;46.60;26.90;;;;;;5131488;27;20047;-68
2021/06/01 10:13:32;;;;;;;2.13;0.20;;;46.20;26.90;;;;;;5131255;27;20790;-67
2021/06/01 10:16:01;;;;;;;2.65;0.20;;;44.90;28.40;;;;;;5113218;27;20055;-66
2021/06/01 10:18:30;;;;;;;5.50;0.35;;;42.90;29.00;;;;;;5131486;27;20096;-71
2021/06/01 10:21:02;;;;;;;4.40;0.40;;;39.70;29.40;;;;;;5121967;27;20096;-70
2021/06/01 10:23:37;;;;;;;4.75;0.40;;;38.10;30.00;;;;;;5112978;27;20090;-64
2021/06/01 10:26:05;;;;;;;8.07;0.47;;;36.20;31.60;;;;;;5131511;27;20038;-61
2021/06/01 10:28:37;;;;;;;4.65;0.63;;;35.70;31.00;;;;;;5130818;27;20169;-68
2021/06/01 10:31:06;;;;;;;9.80;0.70;;;35.70;31.00;;;;;;5131606;27;20043;-68
2021/06/01 10:33:35;;;;;;;6.32;0.50;;;35.40;31.40;;;;;;5131194;27;20458;-67
2021/06/01 10:52:17;;;;;;;1.23;0.13;;;31.50;33.60;;;;;;5130660;27;20150;-63
2021/06/01 10:54:50;;;;;;;4.00;0.60;;;31.60;33.70;;;;;;5130602;27;20591;-63
2021/06/01 10:57:19;;;;;;;1.08;0.60;;;31.50;34.20;;;;;;5130485;27;20118;-61
2021/06/01 11:02:17;;;;;;;1.90;1.20;;;29.70;35.60;;;;;;5130790;27;20050;-61
2021/06/01 11:05:06;;;;;;;6.38;1.48;;;29.60;35.70;;;;;;5128151;27;20146;-60
2021/06/01 11:07:51;;;;;;;5.97;1.00;;;29.40;35.70;;;;;;5130306;27;20054;-60
2021/06/01 11:10:42;;;;;;;3.20;0.40;;;29.60;34.90;;;;;;5129417;27;20550;-61
2021/06/01 11:13:11;;;;;;;4.53;0.60;;;30.00;35.30;;;;;;5116819;27;20134;-60
2021/06/01 11:15:38;;;;;;;5.22;0.70;;;30.00;35.10;;;;;;5129724;27;20559;-62
2021/06/01 11:18:19;;;;;;;2.95;0.20;;;29.50;35.30;;;;;;5130657;27;20047;-62
2021/06/01 11:21:02;;;;;;;7.50;0.40;;;29.50;35.20;;;;;;5130402;27;20840;-62
2021/06/01 11:23:51;;;;;;;8.18;1.83;;;29.90;34.20;;;;;;5130433;27;20548;-62
2021/06/01 11:34:37;;;;;;;4.53;0.90;;;29.70;34.40;;;;;;5129946;27;20103;-62
2021/06/01 11:37:29;;;;;;;0.65;0.32;;;29.00;35.00;;;;;;5130036;27;20599;-61
2021/06/01 11:40:20;;;;;;;3.40;0.43;;;28.70;36.00;;;;;;5128488;27;20149;-59
2021/06/01 11:42:52;;;;;;;3.25;0.65;;;28.50;36.80;;;;;;5129627;27;20524;-61
2021/06/01 11:45:22;;;;;;;4.60;0.80;;;28.30;37.50;;;;;;5129444;27;20130;-61
2021/06/01 11:48:05;;;;;;;7.90;0.88;;;27.60;37.70;;;;;;5129575;27;20673;-61
2021/06/01 11:53:16;;;;;;;2.45;0.45;;;27.80;38.10;;;;;;5127423;27;20122;-61
2021/06/01 11:55:48;;;;;;;2.67;1.17;;;28.10;38.00;;;;;;5127757;27;20054;-61
2021/06/01 12:03:56;;;;;;;2.83;0.50;;;26.50;40.40;;;;;;5128935;27;20059;-68
2021/06/01 12:12:11;;;;;;;5.38;0.32;;;27.30;39.10;;;;;;5129184;27;20125;-64
2021/06/01 12:17:49;;;;;;;4.57;2.13;;;27.60;38.60;;;;;;5129393;27;20134;-63
2021/06/01 12:20:15;;;;;;;7.43;0.70;;;27.60;38.20;;;;;;5129165;27;20055;-63
2021/06/01 12:22:41;;;;;;;2.35;0.80;;;27.20;38.40;;;;;;5110924;27;20118;-63
2021/06/01 12:25:11;;;;;;;4.57;0.52;;;27.00;39.40;;;;;;5128927;27;20142;-64
2021/06/01 12:33:16;;;;;;;4.18;0.60;;;27.00;37.80;;;;;;5123268;27;20096;-63
2021/06/01 12:36:51;;;;;;;5.40;1.48;;;26.60;38.80;;;;;;5128945;27;20156;-63
2021/06/01 12:41:45;;;;;;;6.00;0.90;;;26.40;39.40;;;;;;5127924;27;20087;-63
2021/06/01 12:44:12;;;;;;;1.38;0.70;;;26.50;38.40;;;;;;5110647;28;20426;-63
2021/06/01 13:40:57;;;;;;;4.80;0.70;;;23.60;41.90;;;;;;5109651;28;20522;-65
2021/06/01 13:46:20;;;;;;;5.78;0.40;;;22.90;44.50;;;;;;5128197;28;20067;-62
2021/06/01 13:56:58;;;;;;;2.65;2.53;;;22.70;42.80;;;;;;5064533;28;20040;-61
2021/06/01 15:07:24;;;;;;;7.03;1.10;;;22.90;42.60;;;;;;5099519;27;20468;-73
2021/06/01 15:08:36;;;;;;;3.50;0.38;;;22.10;43.70;;;;;;5130180;27;20127;-72
2021/06/01 15:47:41;;;;;;;3.03;0.50;;;19.50;51.70;;;;;;5130448;27;20050;-73
2021/06/01 15:49:33;;;;;;;2.95;0.47;;;19.10;51.80;;;;;;5129579;27;20126;-74
2021/06/01 15:52:37;;;;;;;2.58;0.73;;;19.10;51.20;;;;;;5129991;27;20413;-74
2021/06/01 16:12:04;;;;;;;5.55;0.70;;;18.70;53.10;;;;;;5129610;27;20166;-74
2021/06/01 16:14:43;;;;;;;1.23;0.80;;;18.70;52.80;;;;;;5111530;27;20116;-74
2021/06/01 16:22:45;;;;;;;3.67;0.68;;;18.70;51.60;;;;;;5129188;27;20502;-74
2021/06/01 16:42:33;;;;;;;2.13;1.65;;;18.20;54.80;;;;;;5129224;27;20494;-74
2021/06/01 17:03:47;;;;;;;1.73;1.20;;;17.40;60.10;;;;;;5109635;28;20550;-65
2021/06/01 17:06:23;;;;;;;5.45;1.20;;;17.30;61.50;;;;;;5121410;28;20051;-58
2021/06/01 17:11:19;;;;;;;7.18;0.90;;;17.20;63.70;;;;;;5128804;28;20134;-62
2021/06/01 17:13:59;;;;;;;6.47;1.45;;;17.10;62.10;;;;;;5129037;28;20501;-65
2021/06/01 17:34:59;;;;;;;13.95;6.95;;;16.40;62.60;;;;;;5110134;28;20172;-71
2021/06/01 17:37:26;;;;;;;39.25;4.55;;;16.40;63.30;;;;;;5122352;27;20118;-72
2021/06/01 17:39:53;;;;;;;4.93;1.60;;;16.40;63.20;;;;;;5119391;27;20184;-73
2021/06/01 17:42:31;;;;;;;1.75;1.63;;;16.30;63.10;;;;;;5132384;27;20567;-72
2021/06/01 17:45:03;;;;;;;3.40;1.40;;;16.20;63.10;;;;;;5096933;27;20051;-76
2021/06/01 17:47:34;;;;;;;2.10;1.30;;;16.20;63.50;;;;;;5113769;27;20134;-62
2021/06/01 17:50:03;;;;;;;1.58;0.90;;;16.10;63.10;;;;;;5132234;27;20043;-61
2021/06/01 17:52:30;;;;;;;4.05;1.10;;;16.10;63.50;;;;;;5124731;27;20123;-64
2021/06/01 17:54:58;;;;;;;2.63;1.23;;;16.00;64.00;;;;;;5131165;27;20164;-63
2021/06/01 17:57:27;;;;;;;4.90;0.90;;;15.90;64.20;;;;;;5131890;27;20077;-63
2021/06/01 17:59:55;;;;;;;3.95;1.30;;;15.80;62.90;;;;;;5118673;27;20440;-63
2021/06/01 18:02:22;;;;;;;0.85;0.63;;;15.80;63.00;;;;;;5119563;27;20100;-63
2021/06/01 18:04:51;;;;;;;2.85;1.73;;;15.80;62.30;;;;;;5131645;27;20051;-61
2021/06/01 18:07:25;;;;;;;2.28;1.13;;;15.70;63.40;;;;;;5113416;27;20047;-61
2021/06/01 19:06:51;;;;;;;17.75;4.07;;;14.40;73.30;;;;;;5130588;27;20058;-61
2021/06/01 19:25:43;;;;;;;40.95;17.83;;;14.10;79.80;;;;;;5128476;27;20047;-61
2021/06/01 19:49:59;;;;;;;37.22;9.43;;;14.00;80.50;;;;;;5129656;27;20130;-61
2021/06/01 19:52:33;;;;;;;28.95;9.55;;;14.00;85.30;;;;;;5130043;27;20046;-62
2021/06/01 19:55:04;;;;;;;33.60;13.73;;;14.00;85.80;;;;;;5129922;27;20126;-61
2021/06/01 19:57:30;;;;;;;29.20;11.98;;;13.90;85.60;;;;;;5129897;27;20069;-61
2021/06/01 19:59:58;;;;;;;23.23;9.77;;;14.00;85.10;;;;;;5129822;27;20578;-61
2021/06/01 20:02:28;;;;;;;26.52;9.65;;;14.00;86.50;;;;;;5128891;27;20087;-62
2021/06/01 20:04:56;;;;;;;24.42;9.57;;;13.90;85.00;;;;;;5129262;27;20055;-61
2021/06/01 20:07:23;;;;;;;22.00;10.07;;;13.90;87.20;;;;;;5111087;27;20043;-62
2021/06/01 20:09:51;;;;;;;25.77;8.77;;;13.80;84.00;;;;;;5129377;27;20139;-62
2021/06/01 20:12:17;;;;;;;20.77;7.88;;;13.90;85.10;;;;;;5129514;27;20457;-61
2021/06/01 20:14:44;;;;;;;20.50;8.95;;;13.80;86.60;;;;;;5129641;27;20122;-61
2021/06/01 20:17:34;;;;;;;14.10;8.35;;;13.90;86.20;;;;;;5129245;27;20090;-61
2021/06/01 20:20:06;;;;;;;15.45;8.55;;;13.80;85.80;;;;;;5116230;27;20063;-61
2021/06/01 20:22:33;;;;;;;19.30;9.10;;;13.80;84.20;;;;;;5129380;27;20482;-61
2021/06/01 20:25:02;;;;;;;18.73;8.77;;;13.80;83.50;;;;;;5129322;27;20794;-61
2021/06/01 20:27:28;;;;;;;24.38;9.70;;;13.70;83.20;;;;;;5109984;27;20047;-61
2021/06/01 20:30:01;;;;;;;31.17;13.00;;;13.70;84.00;;;;;;5129082;27;20126;-61
2021/06/01 20:35:21;;;;;;;30.85;12.63;;;13.60;85.00;;;;;;5129147;27;20138;-61
2021/06/01 20:37:48;;;;;;;22.02;12.95;;;13.60;84.70;;;;;;5129474;27;20043;-61
2021/06/01 20:40:19;;;;;;;24.80;13.38;;;13.60;85.50;;;;;;5129177;27;20541;-61
2021/06/01 20:42:53;;;;;;;29.80;15.50;;;13.60;85.80;;;;;;5129224;27;20055;-61
2021/06/01 20:45:26;;;;;;;29.40;14.30;;;13.60;86.40;;;;;;5129003;27;20062;-62
2021/06/01 20:47:57;;;;;;;36.05;14.90;;;13.60;86.70;;;;;;5129125;27;20039;-62
2021/06/01 20:50:25;;;;;;;30.50;15.15;;;13.60;86.50;;;;;;5128702;27;20055;-61
2021/06/01 20:52:51;;;;;;;30.23;14.20;;;13.60;86.40;;;;;;5110716;28;20099;-63
2021/06/01 20:55:17;;;;;;;27.80;13.50;;;13.60;87.50;;;;;;5129075;27;20046;-63
2021/06/01 20:57:50;;;;;;;23.42;13.95;;;13.60;88.20;;;;;;5128912;27;20069;-63